AirNav   Bose Proflight and A20 aviation headeets
 
 1526 users online  

43K Marion Municipal Airport
Marion, Kansas, USA

GOING TO MARION?


FAA INFORMATION EFFECTIVE 31 JANUARY 2019

Location

FAA Identifier: 43K
Lat/Long: 38-20-15.4000N / 096-59-17.7000W
38-20.256667N / 096-59.295000W
38.3376111 / -96.9882500
(estimated)
Elevation: 1390 ft. / 424 m (estimated)
Variation: 07E (1985)
From city: 2 miles SE of MARION, KS
Time zone: UTC -6 (UTC -5 during Daylight Saving Time)
Zip code: 66861

Airport Operations

Airport use: Open to the public
Activation date: 12/1945
Control tower: no
ARTCC: KANSAS CITY CENTER
FSS: WICHITA FLIGHT SERVICE STATION
NOTAMs facility: ICT (NOTAM-D service available)
Attendance: UNATNDD
PHONE AVBL 24 HRS.
Wind indicator: yes
Segmented circle: no
Beacon: white-green (lighted land airport)
Operates sunset to sunrise.

Airport Communications

CTAF: 122.9

Nearby radio navigation aids

VOR radial/distance  VOR name  Freq  Var
FRIr183/(38.4)FORT RILEY VOR109.4006E

 
NDB name  Hdg/Dist  Freq  Var  ID
NEWTON033/21.228106EEWK . .-- -.-
HERINGTON195/22.940706EHRU .... .-. ..-

Airport Services

Fuel available: 100LL MOGAS
Parking: hangars and tiedowns
Airframe service: NONE
Powerplant service: NONE
Bottled oxygen: NONE
Bulk oxygen: NONE

Runway Information

Runway 17/35

Dimensions: 2573 x 40 ft. / 784 x 12 m
Surface: asphalt, in good condition
Runway edge lights: low intensity
Runway edge markings: RWY 35 ALIGNMENT NUMBERS FADED.
RUNWAY 17  RUNWAY 35
Latitude: 38-20.455545N38-20.031528N
Longitude: 096-59.227317W096-59.227317W
Elevation: 1382.0 ft.1378.0 ft.
Traffic pattern: leftleft
Runway heading: 173 magnetic, 180 true353 magnetic, 000 true
Markings: numbers only, in good conditionnumbers only, in good condition

Runway 3/21

Dimensions: 2745 x 95 ft. / 837 x 29 m
Surface: turf, in good condition
RY 03/21 IS SLIGHTLY ROUGH.
Runway edge markings: 03/21 THLDS & EDGES MKD WITH YELLOW PAINTED TIRES.
RUNWAY 3  RUNWAY 21
Traffic pattern: leftleft
Obstructions: 4 ft. fence
THE PROXIMITY OF THE FENCE TO THE RWY ESTABLISHES THE CONTROLLING OBSTRUCTION. THE 35' TO 40' TREES DIRECTLY BEHIND WOULD BE MORE OF A CONCERN FOR APPROACHING AIRCRAFT.
22 ft. pline, 735 ft. from runway, 170 ft. left of centerline, 33:1 slope to clear

Runway 13/31

Dimensions: 2722 x 50 ft. / 830 x 15 m
Surface: turf, in good condition
Runway edge markings: 13/31 THLD & EDGES MKD WITH YELLOW PAINTED TIRES.
RUNWAY 13  RUNWAY 31
Traffic pattern: leftleft
Obstructions: 14 ft. treesnone

Runway 18/36

Dimensions: 2310 x 67 ft. / 704 x 20 m
Surface: turf, in good condition
Runway edge markings: RY 18/36 THLD DELINEATED WITH YELLOW PAINTED TIRES.
RUNWAY 18  RUNWAY 36
Latitude: 38-20.459450N38-20.079648N
Longitude: 096-59.352258W096-59.385003W
Elevation: 1380.0 ft.1378.0 ft.
Traffic pattern: leftleft
Runway heading: 177 magnetic, 184 true357 magnetic, 004 true
Obstructions: 4 ft. fence, 9 ft. from runway, 30 ft. left and right of centerline, 2:1 slope to clearnone

Airport Ownership and Management from official FAA records

Ownership: Publicly-owned
Owner: CITY OF MARION
208 EAST SANTA FE
MARION, KS 66861
Phone 620-382-3703
Manager: DOUG KJELLIN
208 EAST SANTA FE
MARION, KS 66861
Phone 620-382-3703
MR.MAYFIELD IS CITY MGR. OF MARION KS.

Airport Operational Statistics

Aircraft based on the field: 17
Single engine airplanes: 16
Ultralights: 1
    
Aircraft operations: avg 25/day *
66% local general aviation
33% transient general aviation
<1% military
* for 12-month period ending 29 September 2016

Additional Remarks

A58-35 RWY 35 ROAD ABANDONED & IS GATED FM TRAFFIC. +4 FT FENCE; 70 FT FRM END OF RWY; BOTH SIDES OF RWY.
A58-17 +4' FENCE 5' FROM RWY END 30' L & R OF CNTRLEN; LOWERED AT RWY.

Instrument Procedures

There are no published instrument procedures at 43K.

Some nearby airports with instrument procedures:

KEWK - Newton City/County Airport (22 nm SW)
KHRU - Herington Regional Airport (23 nm N)
47K - Moundridge Municipal Airport (25 nm W)
KMPR - Mc Pherson Airport (33 nm W)
1K1 - Lloyd Stearman Field Airport (34 nm S)
 
Loc | Ops | Rwys | IFR | FBO | Links
Com | Nav | Svcs | Stats | Notes

Kansas City Aviation Department
 
Area around 43K (Marion Municipal Airport)
 
Road maps at: MapQuest Bing Google
 
Aerial photo
WARNING: Photo may not be current or correct
Aerial photo of 43K (Marion Municipal Airport)
Photo by Paul Hodson
Photo taken 21-Jan-2006
taken from a C182 from the northwest

Do you have a better or more recent aerial photo of Marion Municipal Airport that you would like to share? If so, please send us your photo.

 
Sectional chart

 
Airport distance calculator
Flying to Marion Municipal Airport? Find the distance to fly.

From to 43K

Sunrise and sunset
Times for 19-Feb-2019
 Local
(UTC-6)
 Zulu
(UTC)
Morning civil twilight06:4812:48
Sunrise07:1413:14
Sunset18:0900:09
Evening civil twilight18:3600:36

Current date and time
Zulu (UTC)  19-Feb-2019 18:27:29
Local (UTC-6)  19-Feb-2019 12:27:29
 
METAR
KEWK 
22nm SW 
191756Z AUTO 09013G17KT 10SM FEW095 M01/M06 A3021 RMK AO2 PRESFR SLP245 T10111061 11011 21067 58031 FZRANO
K1K1 
34nm S 
191815Z AUTO 08006G14KT 10SM SCT070 OVC090 00/M07 A3019 RMK AO2 T00001066
KEQA 
35nm S 
191815Z AUTO 09017G22KT 10SM OVC090 01/M05 A3017 RMK AO2
KAAO 
37nm S 
191754Z AUTO 09011KT 10SM OVC085 00/M07 A3020 RMK AO2 SLP243 T00001067 10000 21056 58033
KEMP 
37nm E 
191753Z AUTO 08015KT 7SM BKN090 OVC110 M02/M06 A3026 RMK AO2 SLP266 T10221061 11022 21061 58038
KBEC 
40nm S 
191815Z AUTO 10010KT 10SM SCT075 OVC090 00/M07 A3017 RMK AO2 T00001070
K3AU 
40nm S 
191815Z AUTO 07011KT 10SM SCT070 OVC085 00/M06 A3018 RMK AO2
KSLN 
41nm NW 
191753Z 09011KT 9SM FEW075 OVC095 M03/M07 A3027 RMK AO2 SLP266 T10331067 11033 21078 58030
KFRI 
43nm N 
191756Z AUTO 06008KT 10SM BKN090 BKN120 M03/M07 A3030 RMK AO2 SLP275 T10321075 11032 21087 57032
KHUT 
44nm W 
191752Z 06007KT 10SM OVC085 M02/M07 A3022 RMK AO2 SLP246 T10221067 11022 21061 58024
TAF
KSLN 
41nm NW 
191735Z 1918/2018 08009KT P6SM OVC040 FM192300 08010KT 5SM -SN OVC029 FM200100 08009KT 3/4SM -SN OVC015 FM201000 VRB03KT P6SM VCSH OVC005 FM201200 VRB04KT P6SM OVC012
KFRI 
43nm N 
191600Z 1916/2022 08012G18KT 9999 FEW080 OVC120 QNH3014INS BECMG 1923/1924 07012KT 3200 -SN BKN008 620089 620989 QNH2976INS TEMPO 2001/2005 0400 +SN BECMG 2008/2009 11009KT 4800 -SN BKN005 620059 QNH2972INS BECMG 2013/2014 VRB06KT 9999 NSW SCT008 BKN012 620124 QNH2972INS BECMG 2017/2018 22012G18KT 9999 SCT012 BKN020 620202 QNH2973INS TX00/1920Z TNM05/1916Z
KHUT 
44nm W 
191735Z 1918/2018 08010KT P6SM VCSH OVC090 FM192100 09011KT 6SM -SN OVC028 FM200100 08009KT 3/4SM -SN OVC004 FM200700 VRB04KT P6SM VCSH OVC003 FM201200 26006KT P6SM OVC009
KIAB 
45nm S 
191800Z 1918/2024 09010G15KT 9999 OVC085 QNH3015INS BECMG 1920/1921 06009KT 0600 SN BKN030 OVC100 550509 QNH2999INS BECMG 1923/1924 06009KT 0400 +SN BKN002 OVC005 550509 QNH2980INS BECMG 2005/2006 08009KT 1200 -SN BKN002 OVC005 QNH2974INS BECMG 2015/2016 21012G18KT 9999 NSW SCT040 QNH2976INS BECMG 2023/2024 21006KT 9999 SKC QNH2980INS TX06/2018Z TNM04/2012Z
KICT 
46nm SW 
191735Z 1918/2018 07011KT P6SM VCSH SCT070 OVC100 FM192130 08009KT 3SM -SN OVC030 FM200000 08010KT 3/4SM -SN OVC010 FM200700 VRB04KT 5SM -SN OVC003 FM201300 VRB05KT P6SM BKN007
KMHK 
50nm N 
191729Z 1918/2018 08011KT P6SM VCSH OVC060 FM192200 07012KT 4SM -SN OVC020 FM200100 08011KT 1/2SM SN OVC008 FM200900 12005KT 1SM -SN OVC005 FM201600 24007KT P6SM BKN035
NOTAMs
Click for the latest NOTAMs
NOTAMs are issued by the DoD/FAA and will open in a separate window not controlled by AirNav.

 

 
 

Would you like to see your business listed on this page?

 If your business provides an interesting product or service to pilots, flight crews, aircraft, or users of the Marion Municipal Airport, you should consider listing it here.  To start the listing process, click on the button below
 
Add a business
 

Other Pages about Marion Municipal Airport

Update a link
 
Copyright © AirNav, LLC. All rights reserved. Privacy Policy  Contact